sensor_id;sensor_type;location;lat;lon;timestamp;temperature;humidity
78988;DHT22;74752;44.786;37.680;2024-03-02T00:00:39;6.94;49.79
78988;DHT22;74752;44.786;37.680;2024-03-02T00:01:40;6.91;50.46
78988;DHT22;74752;44.786;37.680;2024-03-02T00:02:44;6.86;50.57
78988;DHT22;74752;44.786;37.680;2024-03-02T00:03:47;6.83;49.88
78988;DHT22;74752;44.786;37.680;2024-03-02T00:04:51;6.84;49.25
78988;DHT22;74752;44.786;37.680;2024-03-02T00:05:55;6.83;49.90
78988;DHT22;74752;44.786;37.680;2024-03-02T00:06:58;6.81;49.20
78988;DHT22;74752;44.786;37.680;2024-03-02T00:08:00;6.80;49.39
78988;DHT22;74752;44.786;37.680;2024-03-02T00:09:05;6.80;49.79
78988;DHT22;74752;44.786;37.680;2024-03-02T00:10:09;6.80;49.96
78988;DHT22;74752;44.786;37.680;2024-03-02T00:11:18;6.76;48.87
78988;DHT22;74752;44.786;37.680;2024-03-02T00:12:20;6.79;50.01
78988;DHT22;74752;44.786;37.680;2024-03-02T00:13:23;6.74;49.71
78988;DHT22;74752;44.786;37.680;2024-03-02T00:14:29;6.73;49.97
78988;DHT22;74752;44.786;37.680;2024-03-02T00:15:53;6.71;50.11
78988;DHT22;74752;44.786;37.680;2024-03-02T00:16:59;6.71;50.25
78988;DHT22;74752;44.786;37.680;2024-03-02T00:18:01;6.69;48.61
78988;DHT22;74752;44.786;37.680;2024-03-02T00:19:05;6.68;49.28
78988;DHT22;74752;44.786;37.680;2024-03-02T00:20:09;6.69;48.79
78988;DHT22;74752;44.786;37.680;2024-03-02T00:21:14;6.68;49.15
78988;DHT22;74752;44.786;37.680;2024-03-02T00:22:19;6.69;48.32
78988;DHT22;74752;44.786;37.680;2024-03-02T00:23:30;6.70;49.47
78988;DHT22;74752;44.786;37.680;2024-03-02T00:24:34;6.66;48.34
78988;DHT22;74752;44.786;37.680;2024-03-02T00:25:41;6.64;49.48
78988;DHT22;74752;44.786;37.680;2024-03-02T00:26:45;6.68;48.10
78988;DHT22;74752;44.786;37.680;2024-03-02T00:27:48;6.71;47.69
78988;DHT22;74752;44.786;37.680;2024-03-02T00:28:54;6.75;46.83
78988;DHT22;74752;44.786;37.680;2024-03-02T00:30:01;6.80;46.99
78988;DHT22;74752;44.786;37.680;2024-03-02T00:31:13;6.81;47.52
78988;DHT22;74752;44.786;37.680;2024-03-02T00:32:15;6.83;45.85
78988;DHT22;74752;44.786;37.680;2024-03-02T00:33:21;6.83;48.22
78988;DHT22;74752;44.786;37.680;2024-03-02T00:34:29;6.78;47.09
78988;DHT22;74752;44.786;37.680;2024-03-02T00:35:31;6.79;47.45
78988;DHT22;74752;44.786;37.680;2024-03-02T00:36:34;6.80;46.95
78988;DHT22;74752;44.786;37.680;2024-03-02T00:37:37;6.75;47.47
78988;DHT22;74752;44.786;37.680;2024-03-02T00:38:54;6.73;47.46
78988;DHT22;74752;44.786;37.680;2024-03-02T00:39:59;6.70;48.51
78988;DHT22;74752;44.786;37.680;2024-03-02T00:41:08;6.63;48.64
78988;DHT22;74752;44.786;37.680;2024-03-02T00:42:18;6.59;47.96
78988;DHT22;74752;44.786;37.680;2024-03-02T00:44:51;6.55;48.08
78988;DHT22;74752;44.786;37.680;2024-03-02T00:45:54;6.52;48.50
78988;DHT22;74752;44.786;37.680;2024-03-02T00:47:01;6.53;48.24
78988;DHT22;74752;44.786;37.680;2024-03-02T00:48:08;6.50;48.41
78988;DHT22;74752;44.786;37.680;2024-03-02T00:50:15;6.54;47.99
78988;DHT22;74752;44.786;37.680;2024-03-02T00:51:21;6.54;46.97
78988;DHT22;74752;44.786;37.680;2024-03-02T00:52:24;6.54;47.55
78988;DHT22;74752;44.786;37.680;2024-03-02T00:53:26;6.54;47.72
78988;DHT22;74752;44.786;37.680;2024-03-02T00:54:29;6.58;46.08
78988;DHT22;74752;44.786;37.680;2024-03-02T00:55:38;6.64;47.09
78988;DHT22;74752;44.786;37.680;2024-03-02T00:56:47;6.65;47.41
78988;DHT22;74752;44.786;37.680;2024-03-02T00:57:49;6.57;47.22
78988;DHT22;74752;44.786;37.680;2024-03-02T00:58:51;6.58;47.01
78988;DHT22;74752;44.786;37.680;2024-03-02T00:59:54;6.61;46.95
78988;DHT22;74752;44.786;37.680;2024-03-02T01:00:56;6.64;48.41
78988;DHT22;74752;44.786;37.680;2024-03-02T01:02:05;6.63;47.24
78988;DHT22;74752;44.786;37.680;2024-03-02T01:03:08;6.63;46.50
78988;DHT22;74752;44.786;37.680;2024-03-02T01:04:11;6.61;46.83
78988;DHT22;74752;44.786;37.680;2024-03-02T01:05:15;6.59;47.87
78988;DHT22;74752;44.786;37.680;2024-03-02T01:06:18;6.54;47.91
78988;DHT22;74752;44.786;37.680;2024-03-02T01:07:40;6.49;46.96
78988;DHT22;74752;44.786;37.680;2024-03-02T01:08:45;6.50;46.25
78988;DHT22;74752;44.786;37.680;2024-03-02T01:09:48;6.51;45.68
78988;DHT22;74752;44.786;37.680;2024-03-02T01:10:50;6.70;45.55
78988;DHT22;74752;44.786;37.680;2024-03-02T01:11:51;6.69;46.56
78988;DHT22;74752;44.786;37.680;2024-03-02T01:12:54;6.76;43.04
78988;DHT22;74752;44.786;37.680;2024-03-02T01:13:57;6.87;43.84
78988;DHT22;74752;44.786;37.680;2024-03-02T01:15:01;6.95;44.47
78988;DHT22;74752;44.786;37.680;2024-03-02T01:16:05;6.94;44.11
78988;DHT22;74752;44.786;37.680;2024-03-02T01:17:08;6.93;44.51
78988;DHT22;74752;44.786;37.680;2024-03-02T01:18:10;6.93;44.26
78988;DHT22;74752;44.786;37.680;2024-03-02T01:19:20;6.90;43.61
78988;DHT22;74752;44.786;37.680;2024-03-02T01:20:25;6.94;45.04
78988;DHT22;74752;44.786;37.680;2024-03-02T01:21:29;6.97;43.61
78988;DHT22;74752;44.786;37.680;2024-03-02T01:22:33;6.98;43.80
78988;DHT22;74752;44.786;37.680;2024-03-02T01:23:41;6.98;45.15
78988;DHT22;74752;44.786;37.680;2024-03-02T01:24:46;6.93;44.05
78988;DHT22;74752;44.786;37.680;2024-03-02T01:25:48;7.01;41.84
78988;DHT22;74752;44.786;37.680;2024-03-02T01:26:50;7.04;43.42
78988;DHT22;74752;44.786;37.680;2024-03-02T01:27:59;7.04;44.74
78988;DHT22;74752;44.786;37.680;2024-03-02T01:29:00;6.98;44.04
78988;DHT22;74752;44.786;37.680;2024-03-02T01:30:02;6.94;43.89
78988;DHT22;74752;44.786;37.680;2024-03-02T01:31:04;6.90;44.22
78988;DHT22;74752;44.786;37.680;2024-03-02T01:32:06;6.86;45.41
78988;DHT22;74752;44.786;37.680;2024-03-02T01:33:08;6.81;44.76
78988;DHT22;74752;44.786;37.680;2024-03-02T01:34:10;6.80;44.23
78988;DHT22;74752;44.786;37.680;2024-03-02T01:35:19;6.85;45.05
78988;DHT22;74752;44.786;37.680;2024-03-02T01:36:21;6.85;45.34
78988;DHT22;74752;44.786;37.680;2024-03-02T01:37:34;6.86;45.55
78988;DHT22;74752;44.786;37.680;2024-03-02T01:38:40;6.95;45.19
78988;DHT22;74752;44.786;37.680;2024-03-02T01:39:46;6.98;46.63
78988;DHT22;74752;44.786;37.680;2024-03-02T01:40:48;6.96;46.04
78988;DHT22;74752;44.786;37.680;2024-03-02T01:41:49;6.97;45.69
78988;DHT22;74752;44.786;37.680;2024-03-02T01:42:55;7.00;45.99
78988;DHT22;74752;44.786;37.680;2024-03-02T01:43:59;6.97;46.55
78988;DHT22;74752;44.786;37.680;2024-03-02T01:45:01;7.00;44.44
78988;DHT22;74752;44.786;37.680;2024-03-02T01:46:06;7.05;45.27
78988;DHT22;74752;44.786;37.680;2024-03-02T01:47:08;7.05;46.76
78988;DHT22;74752;44.786;37.680;2024-03-02T01:48:10;7.02;46.51
78988;DHT22;74752;44.786;37.680;2024-03-02T01:49:13;7.03;47.03
78988;DHT22;74752;44.786;37.680;2024-03-02T01:50:24;7.00;47.00
78988;DHT22;74752;44.786;37.680;2024-03-02T01:51:27;6.99;46.82
78988;DHT22;74752;44.786;37.680;2024-03-02T01:52:29;7.01;48.05
78988;DHT22;74752;44.786;37.680;2024-03-02T01:53:30;7.01;44.64
78988;DHT22;74752;44.786;37.680;2024-03-02T01:54:36;7.05;46.20
78988;DHT22;74752;44.786;37.680;2024-03-02T01:55:38;7.12;43.26
78988;DHT22;74752;44.786;37.680;2024-03-02T01:56:40;7.24;43.83
78988;DHT22;74752;44.786;37.680;2024-03-02T01:57:45;7.30;43.65
78988;DHT22;74752;44.786;37.680;2024-03-02T01:58:49;7.41;41.12
78988;DHT22;74752;44.786;37.680;2024-03-02T01:59:50;7.57;42.93
78988;DHT22;74752;44.786;37.680;2024-03-02T02:00:56;7.62;41.62
78988;DHT22;74752;44.786;37.680;2024-03-02T02:02:00;7.74;42.68
78988;DHT22;74752;44.786;37.680;2024-03-02T02:03:04;7.82;41.85
78988;DHT22;74752;44.786;37.680;2024-03-02T02:04:07;7.96;40.76
78988;DHT22;74752;44.786;37.680;2024-03-02T02:05:08;8.02;42.36
78988;DHT22;74752;44.786;37.680;2024-03-02T02:06:10;7.94;42.97
78988;DHT22;74752;44.786;37.680;2024-03-02T02:07:15;7.88;42.75
78988;DHT22;74752;44.786;37.680;2024-03-02T02:08:20;7.87;42.85
78988;DHT22;74752;44.786;37.680;2024-03-02T02:09:24;7.86;43.71
78988;DHT22;74752;44.786;37.680;2024-03-02T02:10:30;7.83;43.77
78988;DHT22;74752;44.786;37.680;2024-03-02T02:11:34;7.74;43.95
78988;DHT22;74752;44.786;37.680;2024-03-02T02:12:40;7.68;44.18
78988;DHT22;74752;44.786;37.680;2024-03-02T02:13:45;7.67;43.68
78988;DHT22;74752;44.786;37.680;2024-03-02T02:14:50;7.67;44.83
78988;DHT22;74752;44.786;37.680;2024-03-02T02:15:54;7.59;44.64
78988;DHT22;74752;44.786;37.680;2024-03-02T02:16:56;7.54;45.14
78988;DHT22;74752;44.786;37.680;2024-03-02T02:17:59;7.54;45.22
78988;DHT22;74752;44.786;37.680;2024-03-02T02:19:04;7.54;44.80
78988;DHT22;74752;44.786;37.680;2024-03-02T02:20:07;7.48;44.47
78988;DHT22;74752;44.786;37.680;2024-03-02T02:21:11;7.49;45.12
78988;DHT22;74752;44.786;37.680;2024-03-02T02:22:19;7.47;45.90
78988;DHT22;74752;44.786;37.680;2024-03-02T02:23:21;7.40;45.06
78988;DHT22;74752;44.786;37.680;2024-03-02T02:24:24;7.48;43.45
78988;DHT22;74752;44.786;37.680;2024-03-02T02:25:29;7.56;44.24
78988;DHT22;74752;44.786;37.680;2024-03-02T02:26:30;7.57;45.11
78988;DHT22;74752;44.786;37.680;2024-03-02T02:27:34;7.55;44.49
78988;DHT22;74752;44.786;37.680;2024-03-02T02:28:40;7.52;44.88
78988;DHT22;74752;44.786;37.680;2024-03-02T02:29:48;7.52;45.22
78988;DHT22;74752;44.786;37.680;2024-03-02T02:30:50;7.50;45.77
78988;DHT22;74752;44.786;37.680;2024-03-02T02:31:53;7.53;45.70
78988;DHT22;74752;44.786;37.680;2024-03-02T02:32:56;7.53;45.66
78988;DHT22;74752;44.786;37.680;2024-03-02T02:33:58;7.50;45.50
78988;DHT22;74752;44.786;37.680;2024-03-02T02:35:03;7.53;44.41
78988;DHT22;74752;44.786;37.680;2024-03-02T02:36:08;7.71;45.22
78988;DHT22;74752;44.786;37.680;2024-03-02T02:37:11;7.71;46.00
78988;DHT22;74752;44.786;37.680;2024-03-02T02:38:14;7.63;46.04
78988;DHT22;74752;44.786;37.680;2024-03-02T02:39:21;7.65;46.09
78988;DHT22;74752;44.786;37.680;2024-03-02T02:40:27;7.63;46.09
78988;DHT22;74752;44.786;37.680;2024-03-02T02:41:36;7.60;47.12
78988;DHT22;74752;44.786;37.680;2024-03-02T02:42:41;7.53;47.34
78988;DHT22;74752;44.786;37.680;2024-03-02T02:43:43;7.44;48.02
78988;DHT22;74752;44.786;37.680;2024-03-02T02:44:56;7.29;49.17
78988;DHT22;74752;44.786;37.680;2024-03-02T02:45:58;7.26;49.26
78988;DHT22;74752;44.786;37.680;2024-03-02T02:47:00;7.24;49.45
78988;DHT22;74752;44.786;37.680;2024-03-02T02:48:05;7.22;49.00
78988;DHT22;74752;44.786;37.680;2024-03-02T02:49:08;7.23;48.84
78988;DHT22;74752;44.786;37.680;2024-03-02T02:50:11;7.26;49.06
78988;DHT22;74752;44.786;37.680;2024-03-02T02:51:13;7.32;48.57
78988;DHT22;74752;44.786;37.680;2024-03-02T02:52:16;7.35;49.18
78988;DHT22;74752;44.786;37.680;2024-03-02T02:53:18;7.39;49.01
78988;DHT22;74752;44.786;37.680;2024-03-02T02:54:20;7.39;49.71
78988;DHT22;74752;44.786;37.680;2024-03-02T02:55:25;7.37;49.24
78988;DHT22;74752;44.786;37.680;2024-03-02T02:56:28;7.37;49.74
78988;DHT22;74752;44.786;37.680;2024-03-02T02:57:30;7.38;49.76
78988;DHT22;74752;44.786;37.680;2024-03-02T02:58:39;7.40;49.77
78988;DHT22;74752;44.786;37.680;2024-03-02T02:59:41;7.39;49.95
78988;DHT22;74752;44.786;37.680;2024-03-02T03:00:49;7.40;50.37
78988;DHT22;74752;44.786;37.680;2024-03-02T03:01:51;7.34;50.47
78988;DHT22;74752;44.786;37.680;2024-03-02T03:02:54;7.29;51.35
78988;DHT22;74752;44.786;37.680;2024-03-02T03:04:01;7.26;50.63
78988;DHT22;74752;44.786;37.680;2024-03-02T03:05:11;7.19;51.22
78988;DHT22;74752;44.786;37.680;2024-03-02T03:06:14;7.15;51.52
78988;DHT22;74752;44.786;37.680;2024-03-02T03:07:16;7.11;51.08
78988;DHT22;74752;44.786;37.680;2024-03-02T03:08:18;7.09;52.04
78988;DHT22;74752;44.786;37.680;2024-03-02T03:09:20;7.04;51.90
78988;DHT22;74752;44.786;37.680;2024-03-02T03:10:26;7.10;51.90
78988;DHT22;74752;44.786;37.680;2024-03-02T03:11:28;7.14;51.86
78988;DHT22;74752;44.786;37.680;2024-03-02T03:12:30;7.23;51.74
78988;DHT22;74752;44.786;37.680;2024-03-02T03:13:38;7.32;51.30
78988;DHT22;74752;44.786;37.680;2024-03-02T03:14:40;7.40;50.83
78988;DHT22;74752;44.786;37.680;2024-03-02T03:15:48;7.53;49.46
78988;DHT22;74752;44.786;37.680;2024-03-02T03:16:53;7.63;49.73
78988;DHT22;74752;44.786;37.680;2024-03-02T03:18:00;7.70;50.35
78988;DHT22;74752;44.786;37.680;2024-03-02T03:19:06;7.77;50.27
78988;DHT22;74752;44.786;37.680;2024-03-02T03:20:10;7.81;48.97
78988;DHT22;74752;44.786;37.680;2024-03-02T03:21:15;7.82;49.55
78988;DHT22;74752;44.786;37.680;2024-03-02T03:22:23;7.81;49.31
78988;DHT22;74752;44.786;37.680;2024-03-02T03:23:26;7.79;48.96
78988;DHT22;74752;44.786;37.680;2024-03-02T03:24:28;7.76;49.57
78988;DHT22;74752;44.786;37.680;2024-03-02T03:25:30;7.74;49.34
78988;DHT22;74752;44.786;37.680;2024-03-02T03:26:36;7.75;49.67
78988;DHT22;74752;44.786;37.680;2024-03-02T03:27:38;7.87;49.07
78988;DHT22;74752;44.786;37.680;2024-03-02T03:28:40;7.94;48.87
78988;DHT22;74752;44.786;37.680;2024-03-02T03:29:45;7.96;49.72
78988;DHT22;74752;44.786;37.680;2024-03-02T03:30:51;7.92;50.08
78988;DHT22;74752;44.786;37.680;2024-03-02T03:31:53;7.86;49.40
78988;DHT22;74752;44.786;37.680;2024-03-02T03:32:58;7.81;50.18
78988;DHT22;74752;44.786;37.680;2024-03-02T03:34:09;7.77;49.56
78988;DHT22;74752;44.786;37.680;2024-03-02T03:35:11;7.77;49.60
78988;DHT22;74752;44.786;37.680;2024-03-02T03:36:19;7.74;49.87
78988;DHT22;74752;44.786;37.680;2024-03-02T03:37:24;7.61;50.38
78988;DHT22;74752;44.786;37.680;2024-03-02T03:38:28;7.49;50.86
78988;DHT22;74752;44.786;37.680;2024-03-02T03:39:30;7.53;50.18
78988;DHT22;74752;44.786;37.680;2024-03-02T03:40:35;7.62;49.86
78988;DHT22;74752;44.786;37.680;2024-03-02T03:41:40;7.61;51.20
78988;DHT22;74752;44.786;37.680;2024-03-02T03:42:56;7.53;51.42
78988;DHT22;74752;44.786;37.680;2024-03-02T03:43:59;7.45;51.29
78988;DHT22;74752;44.786;37.680;2024-03-02T03:45:00;7.55;50.21
78988;DHT22;74752;44.786;37.680;2024-03-02T03:46:03;7.57;51.06
78988;DHT22;74752;44.786;37.680;2024-03-02T03:47:06;7.53;50.89
78988;DHT22;74752;44.786;37.680;2024-03-02T03:48:08;7.49;52.13
78988;DHT22;74752;44.786;37.680;2024-03-02T03:49:15;7.44;51.74
78988;DHT22;74752;44.786;37.680;2024-03-02T03:50:24;7.38;51.52
78988;DHT22;74752;44.786;37.680;2024-03-02T03:51:26;7.38;51.82
78988;DHT22;74752;44.786;37.680;2024-03-02T03:52:31;7.32;52.07
78988;DHT22;74752;44.786;37.680;2024-03-02T03:53:37;7.26;52.27
78988;DHT22;74752;44.786;37.680;2024-03-02T03:54:39;7.23;52.15
78988;DHT22;74752;44.786;37.680;2024-03-02T03:55:40;7.20;52.93
78988;DHT22;74752;44.786;37.680;2024-03-02T03:56:44;7.17;52.54
78988;DHT22;74752;44.786;37.680;2024-03-02T03:57:47;7.22;51.84
78988;DHT22;74752;44.786;37.680;2024-03-02T03:58:48;7.23;52.02
78988;DHT22;74752;44.786;37.680;2024-03-02T03:59:53;7.25;53.17
78988;DHT22;74752;44.786;37.680;2024-03-02T04:00:58;7.19;52.81
78988;DHT22;74752;44.786;37.680;2024-03-02T04:02:02;7.17;52.70
78988;DHT22;74752;44.786;37.680;2024-03-02T04:03:04;7.18;52.59
78988;DHT22;74752;44.786;37.680;2024-03-02T04:04:07;7.17;52.11
78988;DHT22;74752;44.786;37.680;2024-03-02T04:05:08;7.16;52.99
78988;DHT22;74752;44.786;37.680;2024-03-02T04:06:15;7.11;53.63
78988;DHT22;74752;44.786;37.680;2024-03-02T04:07:18;7.07;52.89
78988;DHT22;74752;44.786;37.680;2024-03-02T04:08:26;7.08;53.83
78988;DHT22;74752;44.786;37.680;2024-03-02T04:09:28;7.04;53.25
78988;DHT22;74752;44.786;37.680;2024-03-02T04:10:30;7.10;53.53
78988;DHT22;74752;44.786;37.680;2024-03-02T04:11:33;7.02;54.46
78988;DHT22;74752;44.786;37.680;2024-03-02T04:12:36;7.04;53.41
78988;DHT22;74752;44.786;37.680;2024-03-02T04:13:41;7.08;53.94
78988;DHT22;74752;44.786;37.680;2024-03-02T04:14:46;7.10;53.04
78988;DHT22;74752;44.786;37.680;2024-03-02T04:15:48;7.11;53.10
78988;DHT22;74752;44.786;37.680;2024-03-02T04:16:50;7.09;52.68
78988;DHT22;74752;44.786;37.680;2024-03-02T04:17:55;7.08;52.11
78988;DHT22;74752;44.786;37.680;2024-03-02T04:18:57;7.03;53.70
78988;DHT22;74752;44.786;37.680;2024-03-02T04:20:00;7.04;54.33
78988;DHT22;74752;44.786;37.680;2024-03-02T04:21:09;6.97;53.82
78988;DHT22;74752;44.786;37.680;2024-03-02T04:22:11;6.95;53.77
78988;DHT22;74752;44.786;37.680;2024-03-02T04:23:13;6.90;54.44
78988;DHT22;74752;44.786;37.680;2024-03-02T04:24:16;6.99;50.43
78988;DHT22;74752;44.786;37.680;2024-03-02T04:25:18;7.10;52.67
78988;DHT22;74752;44.786;37.680;2024-03-02T04:26:21;7.12;52.57
78988;DHT22;74752;44.786;37.680;2024-03-02T04:27:24;7.17;52.34
78988;DHT22;74752;44.786;37.680;2024-03-02T04:28:28;7.19;52.47
78988;DHT22;74752;44.786;37.680;2024-03-02T04:29:34;7.24;52.29
78988;DHT22;74752;44.786;37.680;2024-03-02T04:30:37;7.27;52.10
78988;DHT22;74752;44.786;37.680;2024-03-02T04:31:39;7.27;52.01
78988;DHT22;74752;44.786;37.680;2024-03-02T04:32:40;7.24;53.81
78988;DHT22;74752;44.786;37.680;2024-03-02T04:33:54;7.28;50.32
78988;DHT22;74752;44.786;37.680;2024-03-02T04:34:57;7.32;52.47
78988;DHT22;74752;44.786;37.680;2024-03-02T04:35:59;7.31;53.68
78988;DHT22;74752;44.786;37.680;2024-03-02T04:37:04;7.32;53.04
78988;DHT22;74752;44.786;37.680;2024-03-02T04:38:09;7.38;52.90
78988;DHT22;74752;44.786;37.680;2024-03-02T04:39:17;7.41;52.93
78988;DHT22;74752;44.786;37.680;2024-03-02T04:40:19;7.47;51.41
78988;DHT22;74752;44.786;37.680;2024-03-02T04:41:20;7.49;52.87
78988;DHT22;74752;44.786;37.680;2024-03-02T04:42:24;7.47;52.21
78988;DHT22;74752;44.786;37.680;2024-03-02T04:43:26;7.54;50.38
78988;DHT22;74752;44.786;37.680;2024-03-02T04:44:31;7.63;51.39
78988;DHT22;74752;44.786;37.680;2024-03-02T04:45:41;7.69;51.01
78988;DHT22;74752;44.786;37.680;2024-03-02T04:46:44;7.79;50.42
78988;DHT22;74752;44.786;37.680;2024-03-02T04:47:46;7.88;50.11
78988;DHT22;74752;44.786;37.680;2024-03-02T04:48:49;7.94;48.57
78988;DHT22;74752;44.786;37.680;2024-03-02T04:49:58;8.11;48.47
78988;DHT22;74752;44.786;37.680;2024-03-02T04:51:00;8.17;50.40
78988;DHT22;74752;44.786;37.680;2024-03-02T04:52:05;8.24;49.09
78988;DHT22;74752;44.786;37.680;2024-03-02T04:53:07;8.35;49.04
78988;DHT22;74752;44.786;37.680;2024-03-02T04:54:10;8.51;48.11
78988;DHT22;74752;44.786;37.680;2024-03-02T04:55:18;8.63;48.99
78988;DHT22;74752;44.786;37.680;2024-03-02T04:56:26;8.64;50.89
78988;DHT22;74752;44.786;37.680;2024-03-02T04:57:53;8.64;47.20
78988;DHT22;74752;44.786;37.680;2024-03-02T04:58:58;8.76;47.98
78988;DHT22;74752;44.786;37.680;2024-03-02T05:00:04;8.82;48.68
78988;DHT22;74752;44.786;37.680;2024-03-02T05:01:08;8.82;46.14
78988;DHT22;74752;44.786;37.680;2024-03-02T05:02:14;8.92;45.99
78988;DHT22;74752;44.786;37.680;2024-03-02T05:03:19;9.02;46.22
78988;DHT22;74752;44.786;37.680;2024-03-02T05:04:21;9.17;46.15
78988;DHT22;74752;44.786;37.680;2024-03-02T05:05:24;9.23;46.29
78988;DHT22;74752;44.786;37.680;2024-03-02T05:06:26;9.34;46.72
78988;DHT22;74752;44.786;37.680;2024-03-02T05:07:28;9.45;45.68
78988;DHT22;74752;44.786;37.680;2024-03-02T05:08:30;9.52;45.08
78988;DHT22;74752;44.786;37.680;2024-03-02T05:09:34;9.64;45.99
78988;DHT22;74752;44.786;37.680;2024-03-02T05:10:36;9.67;43.96
78988;DHT22;74752;44.786;37.680;2024-03-02T05:11:38;9.78;44.48
78988;DHT22;74752;44.786;37.680;2024-03-02T05:12:40;9.86;44.92
78988;DHT22;74752;44.786;37.680;2024-03-02T05:13:48;9.98;44.27
78988;DHT22;74752;44.786;37.680;2024-03-02T05:14:54;10.05;44.16
78988;DHT22;74752;44.786;37.680;2024-03-02T05:15:57;10.08;41.65
78988;DHT22;74752;44.786;37.680;2024-03-02T05:16:59;10.12;42.57
78988;DHT22;74752;44.786;37.680;2024-03-02T05:18:01;10.13;40.84
78988;DHT22;74752;44.786;37.680;2024-03-02T05:19:08;10.27;40.71
78988;DHT22;74752;44.786;37.680;2024-03-02T05:20:11;10.35;40.68
78988;DHT22;74752;44.786;37.680;2024-03-02T05:21:17;10.45;40.08
78988;DHT22;74752;44.786;37.680;2024-03-02T05:22:21;10.55;39.91
78988;DHT22;74752;44.786;37.680;2024-03-02T05:23:24;10.60;39.20
78988;DHT22;74752;44.786;37.680;2024-03-02T05:24:26;10.65;40.46
78988;DHT22;74752;44.786;37.680;2024-03-02T05:25:30;10.66;40.79
78988;DHT22;74752;44.786;37.680;2024-03-02T05:26:34;10.64;41.54
78988;DHT22;74752;44.786;37.680;2024-03-02T05:27:39;10.68;39.59
78988;DHT22;74752;44.786;37.680;2024-03-02T05:28:40;10.74;39.37
78988;DHT22;74752;44.786;37.680;2024-03-02T05:29:45;10.81;39.15
78988;DHT22;74752;44.786;37.680;2024-03-02T05:30:50;10.92;38.15
78988;DHT22;74752;44.786;37.680;2024-03-02T05:31:55;11.02;37.10
78988;DHT22;74752;44.786;37.680;2024-03-02T05:32:58;11.09;37.94
78988;DHT22;74752;44.786;37.680;2024-03-02T05:34:15;11.19;37.71
78988;DHT22;74752;44.786;37.680;2024-03-02T05:35:21;11.30;37.51
78988;DHT22;74752;44.786;37.680;2024-03-02T05:36:23;11.39;36.92
78988;DHT22;74752;44.786;37.680;2024-03-02T05:37:26;11.36;37.69
78988;DHT22;74752;44.786;37.680;2024-03-02T05:38:28;11.40;37.06
78988;DHT22;74752;44.786;37.680;2024-03-02T05:39:30;11.46;36.98
78988;DHT22;74752;44.786;37.680;2024-03-02T05:40:35;11.56;36.37
78988;DHT22;74752;44.786;37.680;2024-03-02T05:41:39;11.63;35.82
78988;DHT22;74752;44.786;37.680;2024-03-02T05:42:44;11.64;37.11
78988;DHT22;74752;44.786;37.680;2024-03-02T05:43:45;11.73;36.98
78988;DHT22;74752;44.786;37.680;2024-03-02T05:44:48;11.81;36.06
78988;DHT22;74752;44.786;37.680;2024-03-02T05:45:53;11.87;35.72
78988;DHT22;74752;44.786;37.680;2024-03-02T05:46:55;11.96;35.58
78988;DHT22;74752;44.786;37.680;2024-03-02T05:47:59;12.02;34.61
78988;DHT22;74752;44.786;37.680;2024-03-02T05:49:06;12.00;34.60
78988;DHT22;74752;44.786;37.680;2024-03-02T05:50:09;12.01;36.06
78988;DHT22;74752;44.786;37.680;2024-03-02T05:51:11;12.04;35.59
78988;DHT22;74752;44.786;37.680;2024-03-02T05:52:21;12.04;35.92
78988;DHT22;74752;44.786;37.680;2024-03-02T05:53:24;12.07;35.59
78988;DHT22;74752;44.786;37.680;2024-03-02T05:54:26;12.10;35.96
78988;DHT22;74752;44.786;37.680;2024-03-02T05:55:28;12.20;35.02
78988;DHT22;74752;44.786;37.680;2024-03-02T05:56:30;12.29;35.98
78988;DHT22;74752;44.786;37.680;2024-03-02T05:57:38;12.38;36.12
78988;DHT22;74752;44.786;37.680;2024-03-02T05:58:49;12.43;35.79
78988;DHT22;74752;44.786;37.680;2024-03-02T06:00:10;12.43;35.36
78988;DHT22;74752;44.786;37.680;2024-03-02T06:01:15;12.43;35.00
78988;DHT22;74752;44.786;37.680;2024-03-02T06:02:19;12.47;35.71
78988;DHT22;74752;44.786;37.680;2024-03-02T06:03:20;12.45;35.01
78988;DHT22;74752;44.786;37.680;2024-03-02T06:04:24;12.49;35.91
78988;DHT22;74752;44.786;37.680;2024-03-02T06:05:26;12.60;35.75
78988;DHT22;74752;44.786;37.680;2024-03-02T06:06:28;12.69;35.33
78988;DHT22;74752;44.786;37.680;2024-03-02T06:07:36;12.70;35.35
78988;DHT22;74752;44.786;37.680;2024-03-02T06:08:40;12.74;35.66
78988;DHT22;74752;44.786;37.680;2024-03-02T06:09:48;12.76;35.92
78988;DHT22;74752;44.786;37.680;2024-03-02T06:10:54;12.82;34.97
78988;DHT22;74752;44.786;37.680;2024-03-02T06:11:56;12.96;35.39
78988;DHT22;74752;44.786;37.680;2024-03-02T06:12:58;12.96;35.05
78988;DHT22;74752;44.786;37.680;2024-03-02T06:14:00;13.06;34.95
78988;DHT22;74752;44.786;37.680;2024-03-02T06:15:02;13.08;35.34
78988;DHT22;74752;44.786;37.680;2024-03-02T06:16:06;13.18;34.90
78988;DHT22;74752;44.786;37.680;2024-03-02T06:17:14;13.30;34.60
78988;DHT22;74752;44.786;37.680;2024-03-02T06:18:16;13.32;34.02
78988;DHT22;74752;44.786;37.680;2024-03-02T06:19:18;13.34;34.31
78988;DHT22;74752;44.786;37.680;2024-03-02T06:20:23;13.29;33.34
78988;DHT22;74752;44.786;37.680;2024-03-02T06:21:38;13.27;33.95
78988;DHT22;74752;44.786;37.680;2024-03-02T06:22:41;13.31;33.99
78988;DHT22;74752;44.786;37.680;2024-03-02T06:23:46;13.33;34.41
78988;DHT22;74752;44.786;37.680;2024-03-02T06:24:48;13.35;34.66
78988;DHT22;74752;44.786;37.680;2024-03-02T06:25:50;13.44;34.44
78988;DHT22;74752;44.786;37.680;2024-03-02T06:26:54;13.44;34.49
78988;DHT22;74752;44.786;37.680;2024-03-02T06:27:57;13.51;34.44
78988;DHT22;74752;44.786;37.680;2024-03-02T06:29:05;13.56;34.47
78988;DHT22;74752;44.786;37.680;2024-03-02T06:30:09;13.64;34.28
78988;DHT22;74752;44.786;37.680;2024-03-02T06:31:11;13.75;34.01
78988;DHT22;74752;44.786;37.680;2024-03-02T06:32:14;13.74;34.36
78988;DHT22;74752;44.786;37.680;2024-03-02T06:33:16;13.69;34.58
78988;DHT22;74752;44.786;37.680;2024-03-02T06:34:18;13.74;34.19
78988;DHT22;74752;44.786;37.680;2024-03-02T06:35:24;13.61;34.55
78988;DHT22;74752;44.786;37.680;2024-03-02T06:36:28;13.54;35.27
78988;DHT22;74752;44.786;37.680;2024-03-02T06:37:34;13.53;35.38
78988;DHT22;74752;44.786;37.680;2024-03-02T06:38:36;13.61;35.18
78988;DHT22;74752;44.786;37.680;2024-03-02T06:39:41;13.63;34.62
78988;DHT22;74752;44.786;37.680;2024-03-02T06:40:47;13.75;34.52
78988;DHT22;74752;44.786;37.680;2024-03-02T06:41:48;13.95;33.85
78988;DHT22;74752;44.786;37.680;2024-03-02T06:42:51;14.21;32.41
78988;DHT22;74752;44.786;37.680;2024-03-02T06:43:54;14.45;30.83
78988;DHT22;74752;44.786;37.680;2024-03-02T06:45:01;14.68;32.15
78988;DHT22;74752;44.786;37.680;2024-03-02T06:46:04;14.79;31.40
78988;DHT22;74752;44.786;37.680;2024-03-02T06:47:07;14.97;31.30
78988;DHT22;74752;44.786;37.680;2024-03-02T06:48:15;14.95;32.00